Time;durP1;ratioP1;P1;durP2;ratioP2;P2;SDS_P1;SDS_P2;PMS_P1;PMS_P2;Temp;Humidity;BMP_temperature;BMP_pressure;BME280_temperature;BME280_humidity;BME280_pressure;Samples;Min_cycle;Max_cycle;Signal;HPM_P1;HPM_P2
2022/08/04 00:00:52;;;;;;;0.15;0.15;;;;;;;13.21;100.00;99571.75;7395497;19;20070;-57
2022/08/04 00:03:22;;;;;;;6.32;0.88;;;;;;;13.21;100.00;99572.47;7397582;19;20010;-55
2022/08/04 00:05:49;;;;;;;6.63;0.85;;;;;;;13.19;100.00;99565.88;7395129;19;20019;-57
2022/08/04 00:08:30;;;;;;;0.20;0.20;;;;;;;13.14;100.00;99567.38;7394970;19;20031;-55
2022/08/04 00:10:59;;;;;;;0.25;0.22;;;;;;;13.11;100.00;99571.16;7394891;19;20460;-55
2022/08/04 00:13:29;;;;;;;0.17;0.17;;;;;;;13.08;100.00;99572.16;7394024;19;20010;-55
2022/08/04 00:16:04;;;;;;;0.57;0.38;;;;;;;13.05;100.00;99567.56;7394092;19;20010;-55
2022/08/04 00:18:40;;;;;;;1.85;0.45;;;;;;;12.98;100.00;99568.00;7394637;19;20015;-56
2022/08/04 00:21:11;;;;;;;1.63;0.68;;;;;;;12.97;100.00;99560.13;7394567;19;20070;-55
2022/08/04 00:23:38;;;;;;;7.82;0.28;;;;;;;13.00;100.00;99571.06;7394432;19;20032;-60
2022/08/04 00:26:04;;;;;;;0.68;0.32;;;;;;;12.97;100.00;99566.50;7398182;19;20003;-54
2022/08/04 00:28:31;;;;;;;0.15;0.13;;;;;;;12.96;100.00;99567.75;7395029;19;20014;-58
2022/08/04 00:30:57;;;;;;;1.45;0.20;;;;;;;12.88;100.00;99577.84;7394504;19;20070;-56
2022/08/04 00:33:23;;;;;;;5.35;0.52;;;;;;;12.85;100.00;99567.66;7393503;19;20027;-56
2022/08/04 00:35:50;;;;;;;0.22;0.15;;;;;;;12.82;100.00;99571.47;7392156;19;20030;-55
2022/08/04 00:38:18;;;;;;;0.30;0.30;;;;;;;12.79;100.00;99566.88;7392845;19;20015;-57
2022/08/04 00:41:07;;;;;;;2.38;0.40;;;;;;;12.76;100.00;99573.44;7393735;19;20015;-56
2022/08/04 00:43:47;;;;;;;0.20;0.20;;;;;;;12.79;100.00;99561.28;7396664;19;20011;-55
2022/08/04 00:46:16;;;;;;;0.13;0.13;;;;;;;12.76;100.00;99559.47;7394135;19;20475;-55
2022/08/04 00:49:00;;;;;;;1.73;0.50;;;;;;;12.73;100.00;99558.44;7392496;19;20349;-56
2022/08/04 00:51:39;;;;;;;1.90;0.50;;;;;;;12.71;100.00;99560.22;7394022;19;20014;-56
2022/08/04 00:54:12;;;;;;;0.98;0.63;;;;;;;12.69;100.00;99557.16;7391990;19;20011;-56
2022/08/04 00:56:56;;;;;;;3.70;0.40;;;;;;;12.69;100.00;99563.50;7390831;19;20129;-56
2022/08/04 00:59:43;;;;;;;4.03;0.38;;;;;;;12.66;100.00;99561.69;7394826;19;20017;-56
2022/08/04 01:02:27;;;;;;;1.50;0.63;;;;;;;12.65;100.00;99562.94;7392267;19;20014;-56
2022/08/04 01:05:29;;;;;;;0.40;0.40;;;;;;;12.68;100.00;99558.41;7392742;19;20015;-56
2022/08/04 01:08:14;;;;;;;0.52;0.38;;;;;;;12.69;100.00;99551.56;7396669;19;20014;-56
2022/08/04 01:10:56;;;;;;;0.28;0.28;;;;;;;12.64;100.00;99552.28;7391073;19;20016;-55
2022/08/04 01:13:31;;;;;;;16.95;0.55;;;;;;;12.62;100.00;99552.00;7391747;19;20011;-56
2022/08/04 01:16:06;;;;;;;1.67;0.35;;;;;;;12.66;100.00;99553.31;7391228;19;20010;-55
2022/08/04 01:18:41;;;;;;;0.10;0.10;;;;;;;12.65;100.00;99545.41;7391651;19;20018;-55
2022/08/04 01:21:29;;;;;;;0.20;0.15;;;;;;;12.67;100.00;99554.06;7393890;19;20011;-56
2022/08/04 01:24:40;;;;;;;0.20;0.20;;;;;;;12.68;100.00;99558.41;7393412;19;20048;-56
2022/08/04 01:27:46;;;;;;;0.15;0.15;;;;;;;12.65;100.00;99559.38;7390540;19;20014;-55
2022/08/04 01:30:13;;;;;;;0.30;0.30;;;;;;;12.63;100.00;99567.50;7396641;19;20018;-55
2022/08/04 01:33:03;;;;;;;0.32;0.32;;;;;;;12.60;100.00;99566.50;7390387;19;20007;-55
2022/08/04 01:35:46;;;;;;;6.53;1.00;;;;;;;12.58;100.00;99562.66;7391173;19;20352;-55
2022/08/04 01:38:12;;;;;;;4.82;1.15;;;;;;;12.53;100.00;99555.00;7390771;19;20011;-55
2022/08/04 01:40:40;;;;;;;0.38;0.38;;;;;;;12.48;100.00;99553.69;7391215;19;20011;-55
2022/08/04 01:43:08;;;;;;;1.05;0.45;;;;;;;12.44;100.00;99557.97;7391450;19;20023;-55
2022/08/04 01:45:36;;;;;;;1.20;0.85;;;;;;;12.42;100.00;99558.47;7392179;19;20010;-56
2022/08/04 01:48:03;;;;;;;0.10;0.10;;;;;;;12.41;100.00;99559.72;7396618;19;20011;-55
2022/08/04 01:50:34;;;;;;;0.20;0.20;;;;;;;12.40;100.00;99558.19;7392055;19;20018;-55
2022/08/04 01:53:02;;;;;;;0.75;0.30;;;;;;;12.41;100.00;99567.34;7392406;19;20022;-55
2022/08/04 01:55:29;;;;;;;3.70;0.47;;;;;;;12.43;100.00;99573.19;7390027;19;20010;-56
2022/08/04 01:57:58;;;;;;;0.20;0.20;;;;;;;12.41;100.00;99573.69;7395330;19;20011;-55
2022/08/04 02:00:27;;;;;;;0.47;0.22;;;;;;;12.44;100.00;99569.13;7395399;19;20030;-56
2022/08/04 02:02:55;;;;;;;6.05;0.50;;;;;;;12.46;100.00;99580.56;7392741;19;20018;-55
2022/08/04 02:05:24;;;;;;;0.60;0.30;;;;;;;12.50;100.00;99578.31;7392828;19;20641;-55
2022/08/04 02:08:20;;;;;;;0.80;0.25;;;;;;;12.57;100.00;99577.88;7394997;19;20010;-56
2022/08/04 02:11:08;;;;;;;0.88;0.30;;;;;;;12.59;100.00;99575.34;7389354;19;20015;-55
2022/08/04 02:13:44;;;;;;;1.08;0.50;;;;;;;12.64;100.00;99577.44;7391097;19;20030;-56
2022/08/04 02:16:29;;;;;;;4.78;0.60;;;;;;;12.66;100.00;99569.31;7387887;19;20010;-55
2022/08/04 02:19:19;;;;;;;0.20;0.20;;;;;;;12.69;100.00;99569.06;7389733;19;20034;-56
2022/08/04 02:21:50;;;;;;;1.02;0.60;;;;;;;12.69;100.00;99562.75;7387370;19;20768;-55
2022/08/04 02:24:20;;;;;;;;;;;;;;;12.71;100.00;99571.38;7390378;19;20017;-56
2022/08/04 02:26:50;;;;;;;2.00;0.32;;;;;;;12.74;100.00;99571.16;7392598;19;19934;-55
2022/08/04 02:29:26;;;;;;;1.40;0.20;;;;;;;12.76;100.00;99570.66;7392744;19;20013;-56
2022/08/04 02:32:02;;;;;;;0.47;0.10;;;;;;;12.84;100.00;99566.16;7388193;19;20102;-55
2022/08/04 02:34:36;;;;;;;0.30;0.30;;;;;;;12.93;100.00;99577.09;7388940;19;20040;-56
2022/08/04 02:37:03;;;;;;;0.40;0.40;;;;;;;12.98;100.00;99573.59;7389154;19;20028;-56
2022/08/04 02:39:34;;;;;;;0.30;0.30;;;;;;;13.02;100.00;99562.94;7394147;19;20010;-56
2022/08/04 02:42:02;;;;;;;0.68;0.57;;;;;;;13.03;100.00;99566.50;7388769;19;20010;-55
2022/08/04 02:44:30;;;;;;;0.98;0.50;;;;;;;13.03;100.00;99564.47;7393658;19;20017;-56
2022/08/04 02:46:59;;;;;;;0.28;0.28;;;;;;;13.10;100.00;99575.25;7392111;19;20015;-57
2022/08/04 02:49:28;;;;;;;0.32;0.32;;;;;;;13.14;100.00;99575.75;7388789;19;20403;-55
2022/08/04 02:51:56;;;;;;;0.20;0.20;;;;;;;13.18;100.00;99575.53;7389673;19;20027;-56
2022/08/04 02:54:26;;;;;;;0.45;0.20;;;;;;;13.24;100.00;99567.91;7388953;19;20392;-56
2022/08/04 02:56:56;;;;;;;0.30;0.30;;;;;;;13.27;100.00;99566.94;7388632;19;20015;-56
2022/08/04 02:59:25;;;;;;;0.98;0.43;;;;;;;13.29;100.00;99564.41;7390963;19;20463;-56
2022/08/04 03:01:55;;;;;;;0.20;0.20;;;;;;;13.38;100.00;99573.31;7392695;19;20018;-56
2022/08/04 03:04:48;;;;;;;1.95;0.20;;;;;;;13.43;100.00;99569.81;7389066;19;20031;-56
2022/08/04 03:07:48;;;;;;;0.52;0.52;;;;;;;13.47;100.00;99578.72;7391951;19;20011;-55
2022/08/04 03:10:37;;;;;;;0.28;0.28;;;;;;;13.45;100.00;99574.88;7388613;19;20014;-56
2022/08/04 03:13:25;;;;;;;0.20;0.20;;;;;;;13.38;100.00;99564.94;7387704;19;20006;-56
2022/08/04 03:16:10;;;;;;;2.60;0.52;;;;;;;13.29;100.00;99565.16;7388944;19;20070;-56
2022/08/04 03:19:13;;;;;;;0.82;0.17;;;;;;;13.28;100.00;99558.03;7388700;19;20006;-56
2022/08/04 03:22:03;;;;;;;0.20;0.20;;;;;;;13.27;100.00;99556.53;7388910;19;20597;-55
2022/08/04 03:25:00;;;;;;;6.00;0.70;;;;;;;13.30;100.00;99565.91;7388985;19;20010;-55
2022/08/04 03:27:33;;;;;;;0.28;0.15;;;;;;;13.31;100.00;99559.06;7391219;19;20011;-56
2022/08/04 03:30:21;;;;;;;3.60;0.30;;;;;;;13.28;100.00;99568.44;7391702;19;20014;-56
2022/08/04 03:33:05;;;;;;;0.40;0.20;;;;;;;13.25;100.00;99573.03;7387279;19;20014;-56
2022/08/04 03:35:43;;;;;;;1.23;0.50;;;;;;;13.31;100.00;99578.66;7394675;19;20017;-56
2022/08/04 03:38:51;;;;;;;0.17;0.17;;;;;;;13.40;100.00;99587.59;7395132;19;20011;-55
2022/08/04 03:41:17;;;;;;;0.30;0.10;;;;;;;13.49;100.00;99581.78;7398530;19;20015;-56
2022/08/04 03:43:47;;;;;;;0.55;0.55;;;;;;;13.57;100.00;99584.88;7395316;19;20015;-56
2022/08/04 03:46:22;;;;;;;0.20;0.10;;;;;;;13.64;100.00;99590.00;7396152;19;20033;-56
2022/08/04 03:49:25;;;;;;;0.40;0.30;;;;;;;13.67;100.00;99588.97;7393440;19;20010;-56
2022/08/04 03:55:41;;;;;;;1.40;0.40;;;;;;;13.81;100.00;99585.22;7398008;19;20020;-56
2022/08/04 03:58:44;;;;;;;0.10;0.10;;;;;;;13.91;100.00;99588.53;7394814;19;20015;-56
2022/08/04 04:01:47;;;;;;;0.52;0.20;;;;;;;13.92;100.00;99592.88;7399538;19;20670;-56
2022/08/04 04:04:55;;;;;;;1.33;0.63;;;;;;;13.99;100.00;99600.78;7393681;19;20014;-56
2022/08/04 04:07:52;;;;;;;0.17;0.13;;;;;;;14.04;100.00;99594.44;7398148;19;20476;-56
2022/08/04 04:10:37;;;;;;;5.10;0.65;;;;;;;14.06;100.00;99595.44;7394469;19;20018;-56
2022/08/04 04:13:28;;;;;;;0.13;0.13;;;;;;;14.09;100.00;99602.09;7398526;19;20017;-55
2022/08/04 04:16:06;;;;;;;0.43;0.20;;;;;;;14.09;100.00;99607.69;7394389;19;20018;-56
2022/08/04 04:18:53;;;;;;;0.20;0.20;;;;;;;14.11;100.00;99603.13;7395123;19;20014;-56
2022/08/04 04:21:22;;;;;;;5.05;0.28;;;;;;;14.14;100.00;99604.13;7398414;19;20082;-56
2022/08/04 04:24:14;;;;;;;0.10;0.10;;;;;;;14.16;100.00;99601.59;7394774;19;20044;-56
2022/08/04 04:26:59;;;;;;;2.28;0.50;;;;;;;14.20;100.00;99613.31;7394976;19;20361;-56
2022/08/04 04:29:47;;;;;;;2.78;0.43;;;;;;;14.20;100.00;99607.72;7395971;19;20014;-56
2022/08/04 04:32:27;;;;;;;0.85;0.15;;;;;;;14.23;100.00;99609.47;7394348;19;20420;-55
2022/08/04 04:35:30;;;;;;;0.63;0.20;;;;;;;14.21;100.00;99593.19;7394733;19;20015;-56
2022/08/04 04:38:15;;;;;;;0.80;0.38;;;;;;;14.07;100.00;99604.63;7397853;19;20010;-55
2022/08/04 04:41:00;;;;;;;3.20;0.55;;;;;;;13.91;100.00;99597.72;7393648;19;20105;-55
2022/08/04 04:43:32;;;;;;;0.22;0.20;;;;;;;13.77;100.00;99603.53;7393630;19;20010;-55
2022/08/04 04:46:07;;;;;;;0.17;0.17;;;;;;;13.64;100.00;99601.94;7391404;19;20015;-55
2022/08/04 04:48:58;;;;;;;0.15;0.15;;;;;;;13.48;100.00;99604.66;7393513;19;20011;-56
2022/08/04 04:51:30;;;;;;;;;;;;;;;13.38;100.00;99612.47;7395299;19;20020;-55
2022/08/04 04:54:10;;;;;;;3.22;1.10;;;;;;;13.36;100.00;99615.03;7397622;19;19915;-56
2022/08/04 04:56:42;;;;;;;0.75;0.30;;;;;;;13.31;100.00;99606.63;7393106;19;20010;-56
2022/08/04 04:59:15;;;;;;;0.20;0.15;;;;;;;13.32;100.00;99619.34;7395392;19;20022;-56
2022/08/04 05:01:51;;;;;;;9.15;0.40;;;;;;;13.27;100.00;99618.03;7393353;19;20030;-56
2022/08/04 05:04:52;;;;;;;0.65;0.45;;;;;;;13.27;100.00;99626.44;7395695;19;20023;-56
2022/08/04 05:07:42;;;;;;;;;;;;;;;13.28;100.00;99635.56;7390536;19;20010;-55
2022/08/04 05:10:26;;;;;;;0.10;0.10;;;;;;;13.39;100.00;99636.41;7390800;19;19915;-55
2022/08/04 05:13:08;;;;;;;2.65;0.32;;;;;;;13.48;100.00;99646.63;7392687;19;20015;-56
2022/08/04 05:15:38;;;;;;;3.30;0.50;;;;;;;13.55;100.00;99649.72;7391677;19;20004;-56
2022/08/04 05:18:11;;;;;;;0.63;0.50;;;;;;;13.61;100.00;99655.34;7392508;19;20041;-55
2022/08/04 05:20:50;;;;;;;1.45;0.28;;;;;;;13.73;100.00;99658.97;7391537;19;20352;-55
2022/08/04 05:23:21;;;;;;;4.85;0.52;;;;;;;13.80;100.00;99658.47;7392440;19;20484;-55
2022/08/04 05:26:03;;;;;;;0.25;0.25;;;;;;;13.91;100.00;99664.13;7391762;19;20367;-56
2022/08/04 05:28:38;;;;;;;0.38;0.10;;;;;;;14.04;100.00;99668.00;7393174;19;20014;-56
2022/08/04 05:31:11;;;;;;;0.20;0.20;;;;;;;14.11;100.00;99666.75;7391750;19;20022;-57
2022/08/04 05:33:47;;;;;;;0.13;0.13;;;;;;;14.22;100.00;99661.97;7394896;19;20011;-57
2022/08/04 05:36:19;;;;;;;0.25;0.10;;;;;;;14.34;100.00;99662.75;7390903;19;20003;-57
2022/08/04 05:38:49;;;;;;;0.20;0.10;;;;;;;14.44;100.00;99666.88;7390645;19;20034;-56
2022/08/04 05:41:16;;;;;;;0.20;0.17;;;;;;;14.53;100.00;99669.41;7391607;19;20042;-56
2022/08/04 05:43:44;;;;;;;2.28;0.63;;;;;;;14.61;100.00;99664.84;7391003;19;20017;-56
2022/08/04 05:46:11;;;;;;;0.90;0.68;;;;;;;14.70;100.00;99675.84;7391810;19;20006;-56
2022/08/04 05:48:39;;;;;;;0.40;0.30;;;;;;;14.78;100.00;99674.03;7393513;19;20038;-56
2022/08/04 05:51:09;;;;;;;6.88;2.00;;;;;;;14.87;100.00;99687.81;7390940;19;20015;-57
2022/08/04 05:53:37;;;;;;;6.45;1.40;;;;;;;15.01;100.00;99683.97;7391460;19;20435;-57
2022/08/04 05:56:05;;;;;;;1.52;1.05;;;;;;;15.13;100.00;99684.75;7389601;19;20105;-56
2022/08/04 05:58:33;;;;;;;4.18;0.70;;;;;;;15.24;100.00;99689.59;7389816;19;20007;-56
2022/08/04 06:01:01;;;;;;;0.57;0.28;;;;;;;15.34;100.00;99696.47;7394770;19;20039;-56
2022/08/04 06:03:33;;;;;;;0.17;0.17;;;;;;;15.41;100.00;99699.53;7389415;19;20007;-56
2022/08/04 06:06:01;;;;;;;0.25;0.25;;;;;;;15.50;100.00;99698.50;7392183;19;20031;-57
2022/08/04 06:08:28;;;;;;;3.17;0.40;;;;;;;15.54;100.00;99693.41;7391384;19;20019;-56
2022/08/04 06:10:57;;;;;;;11.73;0.40;;;;;;;15.52;100.00;99695.97;7390184;19;20019;-56
2022/08/04 06:13:29;;;;;;;0.28;0.17;;;;;;;15.47;100.00;99700.31;7389981;19;20020;-56
2022/08/04 06:15:58;;;;;;;3.00;0.50;;;;;;;15.39;100.00;99704.13;7387886;19;20022;-56
2022/08/04 06:18:30;;;;;;;0.30;0.28;;;;;;;15.22;100.00;99706.16;7390121;19;20086;-55
2022/08/04 06:21:00;;;;;;;0.28;0.28;;;;;;;15.23;100.00;99711.25;7391090;19;20019;-56
2022/08/04 06:23:30;;;;;;;0.57;0.20;;;;;;;15.28;100.00;99709.72;7390519;19;20034;-56
2022/08/04 06:26:00;;;;;;;2.42;0.38;;;;;;;15.32;100.00;99710.22;7391134;19;20101;-56
2022/08/04 06:28:27;;;;;;;0.80;0.50;;;;;;;15.38;100.00;99719.41;7390102;19;20011;-56
2022/08/04 06:31:01;;;;;;;0.40;0.17;;;;;;;15.51;100.00;99728.09;7390177;19;20006;-56
2022/08/04 06:33:35;;;;;;;1.15;0.47;;;;;;;15.61;100.00;99727.34;7387234;19;20010;-56
2022/08/04 06:36:04;;;;;;;1.10;0.65;;;;;;;15.68;100.00;99728.84;7389872;19;20203;-56
2022/08/04 06:38:34;;;;;;;4.65;0.57;;;;;;;15.70;100.00;99727.03;7388496;19;20011;-56
2022/08/04 06:41:08;;;;;;;0.38;0.25;;;;;;;15.85;100.00;99730.31;7390355;19;20011;-56
2022/08/04 06:43:36;;;;;;;0.75;0.43;;;;;;;16.01;100.00;99734.38;7389708;19;20014;-55
2022/08/04 06:46:03;;;;;;;0.88;0.82;;;;;;;15.78;100.00;99730.09;7390222;19;20011;-56
2022/08/04 06:48:31;;;;;;;0.30;0.20;;;;;;;15.67;100.00;99735.75;7389272;19;20021;-55
2022/08/04 06:50:58;;;;;;;0.38;0.30;;;;;;;15.61;100.00;99738.56;7389301;19;20015;-55
2022/08/04 06:53:26;;;;;;;9.43;0.43;;;;;;;15.63;100.00;99740.84;7388651;19;20018;-55
2022/08/04 06:55:53;;;;;;;0.65;0.25;;;;;;;15.76;100.00;99755.91;7389114;19;20043;-55
2022/08/04 06:58:20;;;;;;;1.67;0.75;;;;;;;15.83;100.00;99749.00;7389775;19;20007;-56
2022/08/04 07:00:48;;;;;;;0.77;0.20;;;;;;;15.83;100.00;99738.50;7393250;19;20017;-55
2022/08/04 07:03:16;;;;;;;0.65;0.65;;;;;;;15.88;100.00;99756.63;7389089;19;20019;-55
2022/08/04 07:05:46;;;;;;;0.65;0.50;;;;;;;16.09;100.00;99743.78;7388335;19;20078;-56
2022/08/04 07:08:12;;;;;;;0.52;0.32;;;;;;;16.12;100.00;99751.19;7389142;19;20007;-56
2022/08/04 07:10:40;;;;;;;0.30;0.20;;;;;;;16.13;100.00;99754.78;7396154;19;20011;-56
2022/08/04 07:13:08;;;;;;;3.25;0.40;;;;;;;16.21;100.00;99750.91;7394248;19;20387;-56
2022/08/04 07:15:35;;;;;;;2.65;0.73;;;;;;;16.24;100.00;99749.84;7396771;19;20014;-56
2022/08/04 07:18:03;;;;;;;0.30;0.10;;;;;;;16.43;100.00;99756.44;7400914;19;20668;-56
2022/08/04 07:20:31;;;;;;;0.50;0.32;;;;;;;16.54;100.00;99745.16;7395721;19;20887;-56
2022/08/04 07:22:59;;;;;;;0.10;0.10;;;;;;;16.66;100.00;99748.66;7396490;19;20010;-56
2022/08/04 07:25:25;;;;;;;5.30;0.35;;;;;;;16.94;100.00;99748.47;7395798;19;20345;-55
2022/08/04 07:27:51;;;;;;;0.50;0.30;;;;;;;17.09;100.00;99748.88;7399134;19;20014;-55
2022/08/04 07:30:18;;;;;;;0.50;0.30;;;;;;;17.12;100.00;99751.44;7399291;19;20007;-55
2022/08/04 07:32:45;;;;;;;0.32;0.20;;;;;;;17.06;100.00;99749.94;7394453;19;20011;-56
2022/08/04 07:35:13;;;;;;;0.52;0.10;;;;;;;16.90;100.00;99750.81;7396615;19;20503;-55
2022/08/04 07:37:39;;;;;;;0.68;0.40;;;;;;;16.78;100.00;99766.25;7397747;19;20025;-55
2022/08/04 07:40:06;;;;;;;0.50;0.30;;;;;;;16.74;100.00;99768.56;7395601;19;20073;-56
2022/08/04 07:42:33;;;;;;;0.38;0.10;;;;;;;16.93;100.00;99766.66;7395205;19;20026;-55
2022/08/04 07:45:00;;;;;;;0.20;0.05;;;;;;;17.15;100.00;99769.31;7395067;19;20019;-55
2022/08/04 07:47:26;;;;;;;0.47;0.32;;;;;;;17.26;100.00;99775.63;7398323;19;20010;-56
2022/08/04 07:49:53;;;;;;;0.57;0.25;;;;;;;17.34;100.00;99781.47;7395784;19;20025;-56
2022/08/04 07:52:21;;;;;;;0.30;0.30;;;;;;;17.40;100.00;99784.97;7394840;19;20016;-56
2022/08/04 07:54:50;;;;;;;0.17;0.17;;;;;;;17.35;100.00;99788.59;7395891;19;20018;-56
2022/08/04 07:57:19;;;;;;;2.70;0.95;;;;;;;17.17;100.00;99789.25;7392407;19;20014;-55
2022/08/04 07:59:46;;;;;;;2.72;0.65;;;;;;;17.04;100.00;99791.91;7397041;19;20014;-56
2022/08/04 08:02:14;;;;;;;0.25;0.20;;;;;;;17.01;100.00;99788.09;7393905;19;20401;-56
2022/08/04 08:04:42;;;;;;;3.53;0.65;;;;;;;17.05;100.00;99796.25;7394729;19;20021;-57
2022/08/04 08:07:08;;;;;;;0.77;0.50;;;;;;;17.07;100.00;99786.00;7397470;19;20021;-57
2022/08/04 08:09:34;;;;;;;1.05;0.47;;;;;;;17.11;100.00;99791.34;7394208;19;20027;-56
2022/08/04 08:12:01;;;;;;;0.20;0.10;;;;;;;17.26;100.00;99798.13;7393423;19;20363;-54
2022/08/04 08:14:29;;;;;;;7.47;0.65;;;;;;;17.22;100.00;99802.50;7393130;19;20021;-55
2022/08/04 08:16:55;;;;;;;0.88;0.57;;;;;;;17.01;100.00;99804.97;7396086;19;20019;-55
2022/08/04 08:19:21;;;;;;;7.03;0.85;;;;;;;16.87;100.00;99802.50;7394628;19;20011;-55
2022/08/04 08:21:48;;;;;;;0.55;0.20;;;;;;;16.89;100.00;99802.75;7392400;19;20011;-55
2022/08/04 08:24:15;;;;;;;0.88;0.73;;;;;;;17.04;100.00;99809.56;7394581;19;20075;-56
2022/08/04 08:26:42;;;;;;;2.17;0.50;;;;;;;17.12;100.00;99806.94;7396525;19;20007;-56
2022/08/04 08:29:09;;;;;;;1.48;0.40;;;;;;;17.23;100.00;99809.69;7394821;19;20017;-56
2022/08/04 08:31:35;;;;;;;0.45;0.30;;;;;;;17.36;100.00;99812.66;7393339;19;20021;-56
2022/08/04 08:34:02;;;;;;;2.15;0.10;;;;;;;17.22;100.00;99820.16;7394283;19;20021;-56
2022/08/04 08:36:36;;;;;;;3.58;0.50;;;;;;;17.10;100.00;99820.78;7393458;19;20366;-56
2022/08/04 08:39:15;;;;;;;0.50;0.38;;;;;;;17.33;100.00;99819.31;7393133;19;20015;-56
2022/08/04 08:41:47;;;;;;;0.17;0.17;;;;;;;17.54;100.00;99812.03;7393402;19;20041;-56
2022/08/04 08:44:22;;;;;;;1.05;0.38;;;;;;;17.44;100.00;99819.25;7393466;19;20011;-55
2022/08/04 08:47:12;;;;;;;1.45;0.45;;;;;;;17.63;100.00;99820.13;7395960;19;20006;-56
2022/08/04 08:49:52;;;;;;;4.75;0.80;;;;;;;17.63;100.00;99820.13;7391596;19;20041;-56
2022/08/04 08:52:36;;;;;;;2.05;0.30;;;;;;;17.55;100.00;99826.88;7393495;19;20014;-56
2022/08/04 08:55:27;;;;;;;0.63;0.30;;;;;;;17.64;100.00;99820.91;7392900;19;20015;-56
2022/08/04 08:58:15;;;;;;;0.20;0.10;;;;;;;17.74;100.00;99820.03;7397138;19;20039;-56
2022/08/04 09:01:16;;;;;;;3.30;0.30;;;;;;;17.91;100.00;99829.09;7395110;19;20410;-57
2022/08/04 09:04:17;;;;;;;0.20;0.20;;;;;;;18.16;100.00;99810.16;7390586;19;20046;-56
2022/08/04 09:07:22;;;;;;;0.20;0.20;;;;;;;18.26;100.00;99824.66;7394686;19;20010;-56
2022/08/04 09:10:01;;;;;;;0.30;0.22;;;;;;;18.58;100.00;99819.97;7389419;19;20375;-56
2022/08/04 09:12:33;;;;;;;2.42;0.75;;;;;;;18.65;100.00;99813.69;7392461;19;20528;-56
2022/08/04 09:15:03;;;;;;;0.68;0.10;;;;;;;18.16;100.00;99816.56;7391938;19;20022;-56
2022/08/04 09:17:36;;;;;;;0.20;0.10;;;;;;;17.93;100.00;99823.69;7393627;19;20031;-56
2022/08/04 09:20:11;;;;;;;0.28;0.28;;;;;;;18.02;100.00;99828.22;7392851;19;20014;-56
2022/08/04 09:22:48;;;;;;;0.75;0.28;;;;;;;18.33;100.00;99824.06;7393306;19;20039;-56
2022/08/04 09:25:20;;;;;;;0.10;0.00;;;;;;;18.13;100.00;99828.88;7391657;19;20074;-56
2022/08/04 09:27:58;;;;;;;0.10;0.10;;;;;;;18.12;100.00;99824.56;7394287;19;20013;-56
2022/08/04 09:31:15;;;;;;;1.85;0.65;;;;;;;18.54;100.00;99833.56;7394053;19;20036;-56
2022/08/04 09:33:54;;;;;;;7.53;0.32;;;;;;;18.78;100.00;99839.94;7394261;19;20010;-56
2022/08/04 09:36:40;;;;;;;0.13;0.10;;;;;;;19.03;100.00;99835.00;7392071;19;20039;-56
2022/08/04 09:39:29;;;;;;;3.03;0.28;;;;;;;19.20;100.00;99824.22;7395174;19;20027;-55
2022/08/04 09:42:17;;;;;;;0.50;0.20;;;;;;;19.26;100.00;99821.31;7389163;19;20515;-55
2022/08/04 09:45:05;;;;;;;0.63;0.30;;;;;;;19.32;100.00;99822.75;7389136;19;20483;-55
2022/08/04 09:47:40;;;;;;;0.10;0.10;;;;;;;19.31;100.00;99818.41;7393509;19;20015;-56
2022/08/04 09:50:34;;;;;;;0.10;0.05;;;;;;;19.30;100.00;99828.19;7391389;19;20011;-57
2022/08/04 09:53:20;;;;;;;0.50;0.20;;;;;;;19.45;100.00;99828.47;7389885;19;20031;-58
2022/08/04 09:55:49;;;;;;;0.15;0.10;;;;;;;19.26;100.00;99827.72;7386277;19;20030;-56
2022/08/04 09:58:27;;;;;;;0.10;0.00;;;;;;;19.46;100.00;99832.84;7390878;19;20063;-56
2022/08/04 10:01:08;;;;;;;0.75;0.13;;;;;;;19.35;100.00;99827.38;7389893;19;20014;-56
2022/08/04 10:03:38;;;;;;;0.30;0.20;;;;;;;19.15;100.00;99829.94;7389837;19;20021;-56
2022/08/04 10:06:27;;;;;;;0.68;0.10;;;;;;;18.87;100.00;99827.50;7391377;19;20471;-55
2022/08/04 10:09:20;;;;;;;2.63;0.17;;;;;;;18.63;100.00;99841.69;7390038;19;20013;-56
2022/08/04 10:12:04;;;;;;;1.88;0.32;;;;;;;18.95;100.00;99842.53;7390858;19;20017;-55
2022/08/04 10:14:47;;;;;;;0.10;0.10;;;;;;;19.58;100.00;99834.19;7390747;19;20451;-55
2022/08/04 10:17:38;;;;;;;3.70;0.40;;;;;;;20.22;100.00;99839.78;7392584;19;20102;-56
2022/08/04 10:20:18;;;;;;;2.15;1.05;;;;;;;20.16;100.00;99837.00;7390110;19;20014;-55
2022/08/04 10:23:01;;;;;;;0.22;0.15;;;;;;;20.08;100.00;99841.78;7389551;19;20023;-55
2022/08/04 10:25:48;;;;;;;1.20;0.38;;;;;;;20.11;100.00;99845.63;7390750;19;20347;-55
2022/08/04 10:28:18;;;;;;;0.55;0.20;;;;;;;20.33;100.00;99829.03;7391268;19;20014;-55
2022/08/04 10:30:51;;;;;;;1.15;0.10;;;;;;;20.38;100.00;99841.50;7386890;19;20017;-55
2022/08/04 10:33:24;;;;;;;1.40;0.00;;;;;;;20.28;100.00;99843.25;7394567;19;20010;-56
2022/08/04 10:35:59;;;;;;;3.35;0.20;;;;;;;20.42;100.00;99853.28;7390274;19;20022;-55
2022/08/04 10:38:30;;;;;;;0.90;0.00;;;;;;;20.56;100.00;99854.81;7392480;19;20010;-56
2022/08/04 10:41:10;;;;;;;3.45;0.50;;;;;;;20.43;100.00;99860.47;7389198;19;20026;-57
2022/08/04 10:43:57;;;;;;;0.40;0.10;;;;;;;20.16;100.00;99859.63;7388253;19;20035;-55
2022/08/04 10:46:32;;;;;;;4.63;0.30;;;;;;;20.06;100.00;99861.38;7391748;19;20017;-55
2022/08/04 10:49:08;;;;;;;0.95;0.38;;;;;;;20.47;100.00;99865.78;7391469;19;20006;-55
2022/08/04 10:51:46;;;;;;;0.15;0.15;;;;;;;20.97;100.00;99868.34;7390485;19;20369;-56
2022/08/04 10:54:19;;;;;;;0.50;0.30;;;;;;;21.22;100.00;99877.38;7389492;19;20010;-56
2022/08/04 10:56:53;;;;;;;0.40;0.28;;;;;;;21.07;100.00;99881.53;7388625;19;20039;-54
2022/08/04 10:59:37;;;;;;;1.33;0.22;;;;;;;21.03;100.00;99880.34;7391499;19;20029;-56
2022/08/04 11:02:32;;;;;;;3.30;0.17;;;;;;;21.05;100.00;99886.25;7389582;19;20011;-55
2022/08/04 11:05:09;;;;;;;1.83;0.10;;;;;;;20.68;100.00;99892.88;7387281;19;20098;-55
2022/08/04 11:07:39;;;;;;;1.55;0.20;;;;;;;20.55;100.00;99895.72;7393491;19;20017;-56
2022/08/04 11:10:08;;;;;;;0.22;0.15;;;;;;;20.57;100.00;99887.47;7388148;19;20483;-56
2022/08/04 11:12:36;;;;;;;0.47;0.20;;;;;;;20.75;100.00;99886.56;7387918;19;20538;-56
2022/08/04 11:15:12;;;;;;;0.17;0.10;;;;;;;21.19;100.00;99895.47;7388390;19;20089;-56
2022/08/04 11:17:47;;;;;;;0.85;0.17;;;;;;;21.40;100.00;99888.53;7390856;19;20010;-56
2022/08/04 11:20:36;;;;;;;1.00;0.47;;;;;;;20.99;100.00;99892.00;7388908;19;20015;-56
2022/08/04 11:23:12;;;;;;;1.40;0.10;;;;;;;20.44;100.00;99901.59;7386866;19;20011;-55
2022/08/04 11:26:11;;;;;;;0.10;0.10;;;;;;;19.83;100.00;99907.53;7389004;19;20010;-55
2022/08/04 11:28:51;;;;;;;1.10;0.10;;;;;;;19.57;100.00;99911.00;7388038;19;20010;-56
2022/08/04 11:31:31;;;;;;;1.13;0.43;;;;;;;19.54;100.00;99918.50;7388068;19;20018;-55
2022/08/04 11:34:03;;;;;;;0.13;0.10;;;;;;;19.56;100.00;99915.88;7388028;19;20346;-60
2022/08/04 11:36:35;;;;;;;0.32;0.17;;;;;;;19.73;100.00;99912.81;7388679;19;20010;-61
2022/08/04 11:39:22;;;;;;;8.10;0.20;;;;;;;19.94;100.00;99924.31;7388714;19;20062;-56
2022/08/04 11:42:04;;;;;;;0.20;0.00;;;;;;;19.66;100.00;99930.41;7386890;19;20541;-57
2022/08/04 11:44:47;;;;;;;0.20;0.15;;;;;;;19.27;100.00;99935.81;7387915;19;20328;-56
2022/08/04 11:47:23;;;;;;;4.20;0.20;;;;;;;19.15;100.00;99942.88;7390605;19;20535;-56
2022/08/04 11:50:21;;;;;;;1.10;0.28;;;;;;;18.99;100.00;99941.81;7386998;19;20011;-56
2022/08/04 11:52:51;;;;;;;0.68;0.25;;;;;;;18.91;100.00;99929.56;7384359;19;20022;-56
2022/08/04 11:55:20;;;;;;;0.43;0.10;;;;;;;19.14;100.00;99936.50;7393438;19;20010;-56
2022/08/04 11:57:47;;;;;;;0.43;0.22;;;;;;;19.53;100.00;99928.25;7396271;19;20053;-56
2022/08/04 12:00:18;;;;;;;0.10;0.10;;;;;;;19.98;100.00;99922.69;7397407;19;20003;-56
2022/08/04 12:03:12;;;;;;;0.10;0.10;;;;;;;20.66;100.00;99926.63;7395171;19;20023;-57
2022/08/04 12:06:05;;;;;;;0.30;0.10;;;;;;;21.05;100.00;99923.81;7394730;19;20011;-56
2022/08/04 12:08:50;;;;;;;2.30;0.10;;;;;;;20.80;100.00;99931.00;7393302;19;20006;-57
2022/08/04 12:11:48;;;;;;;0.30;0.22;;;;;;;20.62;100.00;99940.34;7394995;19;20045;-57
2022/08/04 12:14:33;;;;;;;0.43;0.10;;;;;;;20.32;100.00;99945.53;7394875;19;20014;-56